createdAt,value
2023-01-29T00:01:22.631Z,-3.96
2023-01-29T00:03:48.876Z,-3.92
2023-01-29T00:06:15.145Z,-3.87
2023-01-29T00:08:41.401Z,-3.89
2023-01-29T00:11:07.637Z,-3.88
2023-01-29T00:13:33.873Z,-3.92
2023-01-29T00:16:00.154Z,-4.00
2023-01-29T00:18:26.389Z,-3.95
2023-01-29T00:20:52.647Z,-3.96
2023-01-29T00:23:18.899Z,-3.93
2023-01-29T00:25:45.153Z,-3.93
2023-01-29T00:28:11.399Z,-4.03
2023-01-29T00:30:37.628Z,-4.01
2023-01-29T00:33:03.889Z,-3.96
2023-01-29T00:35:30.164Z,-3.96
2023-01-29T00:37:56.450Z,-3.94
2023-01-29T00:40:22.706Z,-4.04
2023-01-29T00:42:48.949Z,-4.04
2023-01-29T00:45:15.189Z,-4.12
2023-01-29T00:47:41.445Z,-4.21
2023-01-29T00:50:07.696Z,-4.32
2023-01-29T00:52:33.939Z,-4.24
2023-01-29T00:55:00.203Z,-4.26
2023-01-29T00:57:26.472Z,-4.17
2023-01-29T00:59:52.788Z,-4.12
2023-01-29T01:02:19.115Z,-4.07
2023-01-29T01:04:45.467Z,-4.04
2023-01-29T01:07:14.795Z,-4.11
2023-01-29T01:09:41.067Z,-4.21
2023-01-29T01:12:07.302Z,-4.14
2023-01-29T01:14:33.562Z,-4.05
2023-01-29T01:16:59.801Z,-3.92
2023-01-29T01:19:26.030Z,-4.00
2023-01-29T01:21:52.273Z,-4.06
2023-01-29T01:24:18.603Z,-4.09
2023-01-29T01:26:44.888Z,-4.11
2023-01-29T01:29:11.202Z,-4.11
2023-01-29T01:31:37.548Z,-4.11
2023-01-29T01:34:03.816Z,-4.12
2023-01-29T01:36:30.082Z,-4.08
2023-01-29T01:38:56.391Z,-4.15
2023-01-29T01:41:22.643Z,-4.13
2023-01-29T01:43:48.910Z,-4.09
2023-01-29T01:46:15.210Z,-4.08
2023-01-29T01:48:41.508Z,-4.16
2023-01-29T01:51:07.747Z,-4.14
2023-01-29T01:53:33.998Z,-4.13
2023-01-29T01:56:00.309Z,-4.13
2023-01-29T01:58:26.595Z,-4.10
2023-01-29T02:00:52.922Z,-4.12
2023-01-29T02:03:19.220Z,-4.15
2023-01-29T02:05:45.454Z,-4.17
2023-01-29T02:08:11.747Z,-4.23
2023-01-29T02:10:38.014Z,-4.17
2023-01-29T02:13:04.269Z,-4.16
2023-01-29T02:15:30.588Z,-4.16
2023-01-29T02:17:56.902Z,-4.13
2023-01-29T02:20:23.140Z,-4.13
2023-01-29T02:22:49.447Z,-4.16
2023-01-29T02:25:15.738Z,-4.15
2023-01-29T02:27:41.981Z,-4.14
2023-01-29T02:30:08.310Z,-4.18
2023-01-29T02:32:34.611Z,-4.13
2023-01-29T02:35:00.876Z,-4.16
2023-01-29T02:37:27.103Z,-4.22
2023-01-29T02:39:53.427Z,-4.22
2023-01-29T02:42:19.714Z,-4.19
2023-01-29T02:44:45.962Z,-4.23
2023-01-29T02:47:12.216Z,-4.40
2023-01-29T02:49:38.485Z,-4.55
2023-01-29T02:52:04.728Z,-4.78
2023-01-29T02:54:30.999Z,-4.71
2023-01-29T02:56:57.238Z,-4.61
2023-01-29T02:59:23.511Z,-4.46
2023-01-29T03:01:49.807Z,-4.42
2023-01-29T03:04:16.104Z,-4.39
2023-01-29T03:06:42.347Z,-4.38
2023-01-29T03:09:08.606Z,-4.36
2023-01-29T03:11:34.878Z,-4.37
2023-01-29T03:14:01.131Z,-4.35
2023-01-29T03:16:27.454Z,-4.35
2023-01-29T03:18:53.839Z,-4.42
2023-01-29T03:21:20.119Z,-4.44
2023-01-29T03:23:46.382Z,-4.44
2023-01-29T03:26:12.635Z,-4.45
2023-01-29T03:28:38.951Z,-4.44
2023-01-29T03:31:05.601Z,-4.45
2023-01-29T03:33:31.875Z,-4.47
2023-01-29T03:35:58.163Z,-4.51
2023-01-29T03:38:24.427Z,-4.49
2023-01-29T03:40:50.693Z,-4.53
2023-01-29T03:43:16.947Z,-4.52
2023-01-29T03:45:43.262Z,-4.44
2023-01-29T03:48:09.536Z,-4.45
2023-01-29T03:50:35.862Z,-4.40
2023-01-29T03:53:02.139Z,-4.36
2023-01-29T03:55:28.364Z,-4.55
2023-01-29T03:57:54.677Z,-4.51
2023-01-29T04:00:20.939Z,-4.68
2023-01-29T04:02:47.200Z,-4.61
2023-01-29T04:05:13.501Z,-4.67
2023-01-29T04:07:39.782Z,-4.69
2023-01-29T04:10:06.030Z,-4.55
2023-01-29T04:12:32.415Z,-4.72
2023-01-29T04:14:58.692Z,-4.63
2023-01-29T04:17:24.948Z,-4.95
2023-01-29T04:19:51.227Z,-4.93
2023-01-29T04:22:17.471Z,-4.87
2023-01-29T04:24:43.711Z,-4.77
2023-01-29T04:27:09.999Z,-4.71
2023-01-29T04:29:36.290Z,-4.64
2023-01-29T04:32:02.523Z,-4.54
2023-01-29T04:34:28.837Z,-4.51
2023-01-29T04:36:55.125Z,-4.49
2023-01-29T04:39:21.383Z,-4.47
2023-01-29T04:41:47.615Z,-4.38
2023-01-29T04:44:13.912Z,-4.34
2023-01-29T04:46:40.210Z,-4.34
2023-01-29T04:49:06.507Z,-4.40
2023-01-29T04:51:32.763Z,-4.46
2023-01-29T04:53:59.023Z,-4.67
2023-01-29T04:56:25.262Z,-4.71
2023-01-29T04:58:51.552Z,-4.88
2023-01-29T05:01:17.988Z,-4.95
2023-01-29T05:03:44.332Z,-5.01
2023-01-29T05:06:10.665Z,-4.95
2023-01-29T05:08:36.946Z,-4.93
2023-01-29T05:11:03.202Z,-4.92
2023-01-29T05:13:29.518Z,-4.84
2023-01-29T05:15:55.823Z,-4.81
2023-01-29T05:18:22.106Z,-4.82
2023-01-29T05:20:48.426Z,-4.85
2023-01-29T05:23:14.712Z,-4.75
2023-01-29T05:25:40.935Z,-4.77
2023-01-29T05:28:07.179Z,-4.87
2023-01-29T05:30:33.432Z,-4.79
2023-01-29T05:32:59.719Z,-4.78
2023-01-29T05:35:26.114Z,-4.80
2023-01-29T05:37:52.504Z,-4.77
2023-01-29T05:40:18.925Z,-4.70
2023-01-29T05:42:45.296Z,-4.63
2023-01-29T05:45:11.559Z,-4.61
2023-01-29T05:47:37.804Z,-4.71
2023-01-29T05:50:04.134Z,-4.64
2023-01-29T05:52:30.416Z,-4.64
2023-01-29T05:54:56.647Z,-4.60
2023-01-29T05:57:22.937Z,-4.75
2023-01-29T05:59:49.214Z,-4.72
2023-01-29T06:02:15.465Z,-4.87
2023-01-29T06:04:41.719Z,-4.84
2023-01-29T06:07:07.958Z,-4.87
2023-01-29T06:09:34.188Z,-4.86
2023-01-29T06:12:00.487Z,-4.96
2023-01-29T06:14:26.800Z,-5.01
2023-01-29T06:16:53.044Z,-5.03
2023-01-29T06:19:19.304Z,-5.07
2023-01-29T06:21:45.539Z,-5.01
2023-01-29T06:24:11.839Z,-4.97
2023-01-29T06:26:38.133Z,-4.95
2023-01-29T06:29:04.432Z,-4.87
2023-01-29T06:31:38.681Z,-4.81
2023-01-29T06:34:05.263Z,-4.70
2023-01-29T06:36:31.525Z,-4.66
2023-01-29T06:38:57.774Z,-4.66
2023-01-29T06:41:24.095Z,-4.67
2023-01-29T06:43:50.409Z,-4.67
2023-01-29T06:46:16.672Z,-4.67
2023-01-29T06:48:43.475Z,-4.66
2023-01-29T06:51:09.763Z,-4.66
2023-01-29T06:53:36.014Z,-4.67
2023-01-29T06:56:02.251Z,-4.74
2023-01-29T06:58:28.502Z,-4.85
2023-01-29T07:00:54.786Z,-4.92
2023-01-29T07:03:21.136Z,-4.85
2023-01-29T07:05:47.415Z,-4.86
2023-01-29T07:08:13.664Z,-4.82
2023-01-29T07:10:39.971Z,-4.89
2023-01-29T07:13:06.284Z,-4.92
2023-01-29T07:15:32.526Z,-5.09
2023-01-29T07:17:58.797Z,-5.06
2023-01-29T07:20:25.046Z,-5.01
2023-01-29T07:22:51.325Z,-4.90
2023-01-29T07:25:17.644Z,-4.78
2023-01-29T07:27:43.942Z,-4.69
2023-01-29T07:30:10.177Z,-4.66
2023-01-29T07:32:36.431Z,-4.77
2023-01-29T07:35:02.667Z,-4.66
2023-01-29T07:37:28.897Z,-4.61
2023-01-29T07:39:55.191Z,-4.59
2023-01-29T07:42:21.512Z,-4.53
2023-01-29T07:44:47.769Z,-4.53
2023-01-29T07:47:16.307Z,-4.49
2023-01-29T07:49:43.330Z,-4.47
2023-01-29T07:52:09.624Z,-4.37
2023-01-29T07:54:35.894Z,-4.33
2023-01-29T07:57:02.199Z,-4.30
2023-01-29T07:59:28.512Z,-4.23
2023-01-29T08:01:54.835Z,-4.21
2023-01-29T08:04:21.083Z,-4.17
2023-01-29T08:06:47.327Z,-4.14
2023-01-29T08:09:13.570Z,-4.10
2023-01-29T08:11:39.818Z,-4.11
2023-01-29T08:14:06.084Z,-4.09
2023-01-29T08:16:32.359Z,-4.51
2023-01-29T08:18:58.746Z,-4.45
2023-01-29T08:21:25.031Z,-4.24
2023-01-29T08:23:51.281Z,-4.10
2023-01-29T08:26:17.590Z,-3.99
2023-01-29T08:28:43.883Z,-3.86
2023-01-29T08:31:10.163Z,-3.87
2023-01-29T08:33:39.291Z,-3.86
2023-01-29T08:36:05.779Z,-3.75
2023-01-29T08:38:32.025Z,-3.69
2023-01-29T08:40:58.330Z,-3.55
2023-01-29T08:43:24.612Z,-3.52
2023-01-29T08:45:50.944Z,-3.46
2023-01-29T08:48:17.301Z,-3.37
2023-01-29T08:50:43.585Z,-3.24
2023-01-29T08:53:09.839Z,-3.21
2023-01-29T08:55:36.133Z,-3.07
2023-01-29T08:58:02.433Z,-2.96
2023-01-29T09:00:28.699Z,-2.92
2023-01-29T09:02:55.023Z,-2.86
2023-01-29T09:05:21.353Z,-2.83
2023-01-29T09:07:47.604Z,-2.73
2023-01-29T09:10:13.917Z,-2.60
2023-01-29T09:12:40.253Z,-2.50
2023-01-29T09:15:06.498Z,-2.39
2023-01-29T09:17:32.840Z,-2.25
2023-01-29T09:19:59.107Z,-2.21
2023-01-29T09:22:25.357Z,-2.19
2023-01-29T09:24:51.666Z,-2.09
2023-01-29T09:27:17.962Z,-2.02
2023-01-29T09:29:44.191Z,-1.99
2023-01-29T09:32:10.436Z,-1.90
2023-01-29T09:34:36.691Z,-1.82
2023-01-29T09:37:02.964Z,-1.75
2023-01-29T09:39:29.221Z,-1.69
2023-01-29T09:41:55.482Z,-1.59
2023-01-29T09:44:21.741Z,-1.60
2023-01-29T09:46:48.008Z,-1.43
2023-01-29T09:49:14.277Z,-1.32
2023-01-29T09:51:40.542Z,-1.29
2023-01-29T09:54:06.834Z,-1.25
2023-01-29T09:56:33.128Z,-1.25
2023-01-29T09:59:01.383Z,-1.13
2023-01-29T10:01:28.045Z,-1.21
2023-01-29T10:03:54.333Z,-1.10
2023-01-29T10:06:20.574Z,-1.28
2023-01-29T10:08:46.838Z,-1.48
2023-01-29T10:11:13.098Z,-1.65
2023-01-29T10:13:39.336Z,-1.43
2023-01-29T10:16:05.600Z,-1.28
2023-01-29T10:18:31.843Z,-1.17
2023-01-29T10:20:58.074Z,-1.31
2023-01-29T10:23:24.375Z,-1.32
2023-01-29T10:25:50.645Z,-1.37
2023-01-29T10:28:16.908Z,-1.37
2023-01-29T10:30:43.268Z,-1.26
2023-01-29T10:33:09.554Z,-1.21
2023-01-29T10:35:35.827Z,-0.93
2023-01-29T10:38:02.079Z,-0.78
2023-01-29T10:40:28.307Z,-0.61
2023-01-29T10:42:54.560Z,-0.55
2023-01-29T10:45:20.960Z,-0.46
2023-01-29T10:47:47.332Z,-0.36
2023-01-29T10:50:13.656Z,-0.25
2023-01-29T10:52:39.931Z,-0.19
2023-01-29T10:55:06.210Z,-0.16
2023-01-29T10:57:32.439Z,-0.10
2023-01-29T10:59:58.864Z,-0.22
2023-01-29T11:02:25.164Z,-0.48
2023-01-29T11:04:51.440Z,-0.62
2023-01-29T11:07:17.724Z,-0.58
2023-01-29T11:09:46.149Z,-0.57
2023-01-29T11:12:12.444Z,-0.81
2023-01-29T11:14:38.694Z,-0.59
2023-01-29T11:17:05.047Z,-0.39
2023-01-29T11:19:31.383Z,-0.35
2023-01-29T11:21:57.631Z,-0.64
2023-01-29T11:24:23.947Z,-0.83
2023-01-29T11:26:50.229Z,-0.88
2023-01-29T11:29:16.468Z,-0.67
2023-01-29T11:31:42.816Z,-0.55
2023-01-29T11:34:09.115Z,-0.40
2023-01-29T11:36:35.380Z,-0.48
2023-01-29T11:39:01.627Z,-0.73
2023-01-29T11:41:27.889Z,-0.44
2023-01-29T11:43:54.143Z,-0.60
2023-01-29T11:46:20.482Z,-0.46
2023-01-29T11:48:46.797Z,-0.28
2023-01-29T11:51:13.064Z,-0.57
2023-01-29T11:53:42.288Z,-0.89
2023-01-29T11:56:08.648Z,-0.61
2023-01-29T11:58:34.889Z,-0.58
2023-01-29T12:01:01.218Z,-1.07
2023-01-29T12:03:27.550Z,-1.20
2023-01-29T12:05:53.846Z,-1.51
2023-01-29T12:08:20.143Z,-1.60
2023-01-29T12:10:46.432Z,-1.34
2023-01-29T12:13:12.674Z,-1.01
2023-01-29T12:15:38.980Z,-0.81
2023-01-29T12:18:05.314Z,-0.70
2023-01-29T12:20:31.571Z,-0.95
2023-01-29T12:22:57.874Z,-0.93
2023-01-29T12:25:24.165Z,-1.05
2023-01-29T12:27:50.448Z,-0.93
2023-01-29T12:30:16.946Z,-0.97
2023-01-29T12:32:43.375Z,-0.82
2023-01-29T12:35:09.619Z,-0.80
2023-01-29T12:37:35.940Z,-0.72
2023-01-29T12:40:02.233Z,-0.75
2023-01-29T12:42:28.487Z,-0.60
2023-01-29T12:44:54.798Z,-0.54
2023-01-29T12:47:21.050Z,-0.39
2023-01-29T12:49:47.290Z,-0.26
2023-01-29T12:52:13.754Z,-0.22
2023-01-29T12:54:40.041Z,-0.25
2023-01-29T12:57:06.286Z,-0.16
2023-01-29T12:59:32.541Z,-0.08
2023-01-29T13:01:58.797Z,-0.04
2023-01-29T13:04:25.193Z,-0.01
2023-01-29T13:06:51.464Z,0.05
2023-01-29T13:09:17.760Z,0.11
2023-01-29T13:11:44.036Z,0.11
2023-01-29T13:14:10.307Z,0.07
2023-01-29T13:16:36.647Z,0.07
2023-01-29T13:19:02.984Z,0.05
2023-01-29T13:21:29.298Z,-0.03
2023-01-29T13:23:55.732Z,-0.07
2023-01-29T13:26:22.074Z,0.00
2023-01-29T13:28:48.354Z,-0.07
2023-01-29T13:31:14.606Z,-0.12
2023-01-29T13:33:40.885Z,-0.08
2023-01-29T13:36:07.164Z,-0.25
2023-01-29T13:38:33.581Z,-0.28
2023-01-29T13:40:59.881Z,-0.25
2023-01-29T13:43:26.145Z,-0.22
2023-01-29T13:45:52.461Z,-0.18
2023-01-29T13:48:18.758Z,-0.13
2023-01-29T13:50:45.005Z,-0.12
2023-01-29T13:53:11.298Z,-0.09
2023-01-29T13:55:37.599Z,-0.04
2023-01-29T13:58:03.841Z,-0.06
2023-01-29T14:00:30.687Z,-0.04
2023-01-29T14:02:57.003Z,-0.07
2023-01-29T14:05:23.244Z,-0.01
2023-01-29T14:07:49.479Z,0.04
2023-01-29T14:10:15.737Z,-0.09
2023-01-29T14:12:41.981Z,-0.08
2023-01-29T14:15:08.238Z,0.01
2023-01-29T14:17:34.490Z,0.11
2023-01-29T14:20:00.745Z,0.18
2023-01-29T14:22:27.141Z,0.20
2023-01-29T14:24:53.439Z,0.13
2023-01-29T14:27:19.729Z,0.09
2023-01-29T14:29:45.965Z,0.08
2023-01-29T14:32:12.270Z,0.02
2023-01-29T14:34:38.571Z,-0.06
2023-01-29T14:37:04.827Z,-0.14
2023-01-29T14:39:31.264Z,0.00
2023-01-29T14:41:57.539Z,-0.03
2023-01-29T14:44:23.791Z,-0.07
2023-01-29T14:46:50.028Z,0.02
2023-01-29T14:49:16.280Z,0.15
2023-01-29T14:51:42.519Z,0.21
2023-01-29T14:54:08.863Z,0.22
2023-01-29T14:56:35.170Z,0.32
2023-01-29T14:59:01.403Z,-0.20
2023-01-29T15:01:27.904Z,-0.72
2023-01-29T15:03:54.191Z,-0.77
2023-01-29T15:06:20.439Z,-0.80
2023-01-29T15:08:46.745Z,-0.60
2023-01-29T15:11:13.038Z,-0.96
2023-01-29T15:13:39.280Z,-0.98
2023-01-29T15:16:05.571Z,-0.95
2023-01-29T15:18:31.896Z,-1.61
2023-01-29T15:20:58.190Z,-1.77
2023-01-29T15:23:24.424Z,-1.66
2023-01-29T15:25:52.002Z,-1.38
2023-01-29T15:28:18.249Z,-1.11
2023-01-29T15:30:44.575Z,-0.88
2023-01-29T15:33:10.932Z,-0.73
2023-01-29T15:35:37.219Z,-0.74
2023-01-29T15:38:03.469Z,-0.72
2023-01-29T15:40:30.034Z,-0.60
2023-01-29T15:42:56.297Z,-0.57
2023-01-29T15:45:22.553Z,-0.51
2023-01-29T15:47:51.640Z,-0.42
2023-01-29T15:50:17.924Z,-0.47
2023-01-29T15:52:44.192Z,-0.44
2023-01-29T15:55:10.499Z,-0.40
2023-01-29T15:57:36.795Z,-0.52
2023-01-29T16:00:03.059Z,-0.55
2023-01-29T16:02:29.385Z,-0.67
2023-01-29T16:04:55.722Z,-0.81
2023-01-29T16:07:21.998Z,-0.84
2023-01-29T16:09:48.253Z,-0.89
2023-01-29T16:12:14.484Z,-0.87
2023-01-29T16:14:40.732Z,-0.90
2023-01-29T16:17:07.032Z,-0.97
2023-01-29T16:19:33.376Z,-1.00
2023-01-29T16:21:59.663Z,-0.97
2023-01-29T16:24:25.911Z,-0.97
2023-01-29T16:26:52.230Z,-1.04
2023-01-29T16:29:18.534Z,-1.03
2023-01-29T16:31:44.887Z,-1.10
2023-01-29T16:34:11.250Z,-1.19
2023-01-29T16:36:37.553Z,-1.28
2023-01-29T16:39:03.798Z,-1.29
2023-01-29T16:41:30.033Z,-1.35
2023-01-29T16:43:56.322Z,-1.29
2023-01-29T16:46:22.692Z,-1.30
2023-01-29T16:48:48.977Z,-1.32
2023-01-29T16:51:17.143Z,-1.33
2023-01-29T16:53:43.421Z,-1.42
2023-01-29T16:56:09.661Z,-1.46
2023-01-29T16:58:35.929Z,-1.55
2023-01-29T17:01:02.212Z,-1.42
2023-01-29T17:03:28.489Z,-1.58
2023-01-29T17:05:54.747Z,-1.70
2023-01-29T17:08:21.020Z,-1.78
2023-01-29T17:10:47.265Z,-1.74
2023-01-29T17:13:13.562Z,-1.69
2023-01-29T17:15:39.802Z,-1.64
2023-01-29T17:18:06.035Z,-1.67
2023-01-29T17:20:32.293Z,-1.60
2023-01-29T17:22:58.560Z,-1.61
2023-01-29T17:25:24.806Z,-1.65
2023-01-29T17:27:53.343Z,-1.72
2023-01-29T17:30:19.676Z,-1.62
2023-01-29T17:32:47.319Z,-1.56
2023-01-29T17:35:13.928Z,-1.74
2023-01-29T17:37:40.229Z,-1.93
2023-01-29T17:40:06.457Z,-2.41
2023-01-29T17:42:32.693Z,-2.24
2023-01-29T17:44:59.013Z,-2.05
2023-01-29T17:47:25.278Z,-2.01
2023-01-29T17:49:51.508Z,-2.00
2023-01-29T17:52:17.741Z,-2.09
2023-01-29T17:54:44.012Z,-2.13
2023-01-29T17:57:10.327Z,-2.05
2023-01-29T17:59:36.592Z,-2.10
2023-01-29T18:02:02.984Z,-2.14
2023-01-29T18:04:29.292Z,-2.21
2023-01-29T18:06:55.540Z,-2.13
2023-01-29T18:09:21.855Z,-2.24
2023-01-29T18:11:48.100Z,-2.13
2023-01-29T18:14:14.780Z,-2.17
2023-01-29T18:16:41.208Z,-2.18
2023-01-29T18:19:07.513Z,-2.16
2023-01-29T18:21:33.826Z,-2.15
2023-01-29T18:24:00.110Z,-2.23
2023-01-29T18:26:26.378Z,-2.18
2023-01-29T18:28:52.691Z,-2.20
2023-01-29T18:31:18.985Z,-2.36
2023-01-29T18:33:45.269Z,-2.77
2023-01-29T18:36:11.566Z,-2.74
2023-01-29T18:38:37.854Z,-2.78
2023-01-29T18:41:04.118Z,-2.70
2023-01-29T18:43:30.388Z,-2.81
2023-01-29T18:45:56.699Z,-3.04
2023-01-29T18:48:23.071Z,-3.03
2023-01-29T18:50:49.317Z,-3.08
2023-01-29T18:53:15.625Z,-3.11
2023-01-29T18:55:41.915Z,-3.24
2023-01-29T18:58:27.116Z,-3.34
2023-01-29T19:00:54.511Z,-3.51
2023-01-29T19:03:20.999Z,-3.23
2023-01-29T19:05:47.252Z,-3.08
2023-01-29T19:08:13.764Z,-3.01
2023-01-29T19:10:40.025Z,-2.96
2023-01-29T19:13:06.739Z,-3.12
2023-01-29T19:15:33.036Z,-3.22
2023-01-29T19:17:59.316Z,-3.12
2023-01-29T19:20:25.566Z,-3.02
2023-01-29T19:22:53.582Z,-2.98
2023-01-29T19:25:20.268Z,-2.88
2023-01-29T19:27:46.821Z,-2.83
2023-01-29T19:30:13.174Z,-2.77
2023-01-29T19:32:39.452Z,-2.79
2023-01-29T19:35:05.715Z,-2.84
2023-01-29T19:37:31.975Z,-2.83
2023-01-29T19:39:58.245Z,-2.86
2023-01-29T19:42:24.478Z,-2.84
2023-01-29T19:44:50.742Z,-2.84
2023-01-29T19:47:17.011Z,-3.04
2023-01-29T19:49:43.350Z,-3.01
2023-01-29T19:52:09.596Z,-3.02
2023-01-29T19:54:35.833Z,-2.95
2023-01-29T19:57:02.071Z,-2.95
2023-01-29T19:59:28.328Z,-3.12
2023-01-29T20:01:54.590Z,-3.15
2023-01-29T20:04:20.852Z,-3.28
2023-01-29T20:06:47.147Z,-3.20
2023-01-29T20:09:13.451Z,-3.18
2023-01-29T20:11:39.678Z,-3.16
2023-01-29T20:14:06.016Z,-3.12
2023-01-29T20:16:32.352Z,-3.16
2023-01-29T20:19:14.581Z,-3.00
2023-01-29T20:21:41.255Z,-2.97
2023-01-29T20:24:07.987Z,-2.92
2023-01-29T20:26:34.294Z,-2.85
2023-01-29T20:29:00.584Z,-2.85
2023-01-29T20:31:26.905Z,-2.81
2023-01-29T20:33:53.177Z,-2.87
2023-01-29T20:36:19.577Z,-2.82
2023-01-29T20:38:45.822Z,-2.90
2023-01-29T20:41:12.090Z,-2.88
2023-01-29T20:43:38.491Z,-3.09
2023-01-29T20:46:04.816Z,-3.26
2023-01-29T20:48:31.107Z,-3.22
2023-01-29T20:50:57.353Z,-3.18
2023-01-29T20:53:23.685Z,-3.23
2023-01-29T20:55:50.067Z,-3.27
2023-01-29T20:58:16.603Z,-3.38
2023-01-29T21:00:42.918Z,-3.28
2023-01-29T21:03:09.172Z,-3.40
2023-01-29T21:05:35.467Z,-3.17
2023-01-29T21:08:01.776Z,-3.20
2023-01-29T21:10:28.025Z,-3.11
2023-01-29T21:12:54.316Z,-3.13
2023-01-29T21:15:20.634Z,-3.16
2023-01-29T21:17:46.859Z,-3.06
2023-01-29T21:20:13.088Z,-3.06
2023-01-29T21:22:39.336Z,-3.05
2023-01-29T21:25:05.631Z,-3.02
2023-01-29T21:27:31.955Z,-2.97
2023-01-29T21:29:58.214Z,-2.93
2023-01-29T21:32:24.522Z,-2.88
2023-01-29T21:34:52.582Z,-2.82
2023-01-29T21:37:18.981Z,-2.79
2023-01-29T21:39:45.307Z,-2.86
2023-01-29T21:42:11.605Z,-2.92
2023-01-29T21:44:37.836Z,-2.96
2023-01-29T21:47:04.080Z,-3.00
2023-01-29T21:49:30.539Z,-2.87
2023-01-29T21:51:56.905Z,-2.88
2023-01-29T21:54:23.170Z,-2.93
2023-01-29T21:56:49.493Z,-2.94
2023-01-29T21:59:15.801Z,-3.01
2023-01-29T22:01:42.054Z,-3.00
2023-01-29T22:04:08.342Z,-2.98
2023-01-29T22:06:34.596Z,-2.95
2023-01-29T22:09:00.825Z,-2.96
2023-01-29T22:11:27.243Z,-2.95
2023-01-29T22:13:53.551Z,-2.95
2023-01-29T22:16:19.821Z,-2.92
2023-01-29T22:18:46.142Z,-2.93
2023-01-29T22:21:12.498Z,-3.04
2023-01-29T22:23:38.778Z,-3.34
2023-01-29T22:26:06.044Z,-3.31
2023-01-29T22:28:32.330Z,-3.18
2023-01-29T22:30:58.655Z,-3.02
2023-01-29T22:33:24.924Z,-2.93
2023-01-29T22:35:51.219Z,-2.88
2023-01-29T22:38:17.499Z,-3.01
2023-01-29T22:40:43.743Z,-2.88
2023-01-29T22:43:09.983Z,-2.83
2023-01-29T22:45:36.269Z,-2.78
2023-01-29T22:48:02.545Z,-2.71
2023-01-29T22:50:28.795Z,-2.76
2023-01-29T22:52:55.073Z,-2.79
2023-01-29T22:55:21.312Z,-2.86
2023-01-29T22:57:47.556Z,-2.87
2023-01-29T23:00:13.822Z,-2.83
2023-01-29T23:02:40.093Z,-3.00
2023-01-29T23:05:06.372Z,-3.02
2023-01-29T23:07:32.647Z,-2.93
2023-01-29T23:09:58.913Z,-3.01
2023-01-29T23:12:25.160Z,-3.01
2023-01-29T23:14:51.424Z,-3.03
2023-01-29T23:17:17.665Z,-3.03
2023-01-29T23:19:43.890Z,-2.98
2023-01-29T23:22:10.142Z,-3.01
2023-01-29T23:24:36.419Z,-2.98
2023-01-29T23:27:02.667Z,-2.99
2023-01-29T23:29:28.960Z,-3.08
2023-01-29T23:31:55.249Z,-3.13
2023-01-29T23:34:21.508Z,-3.11
2023-01-29T23:36:47.753Z,-3.21
2023-01-29T23:39:14.016Z,-3.20
2023-01-29T23:41:40.265Z,-3.22
2023-01-29T23:44:06.524Z,-3.15
2023-01-29T23:46:32.832Z,-2.94
2023-01-29T23:48:59.097Z,-2.85
2023-01-29T23:51:25.456Z,-2.79
2023-01-29T23:53:51.746Z,-2.99
2023-01-29T23:56:18.003Z,-3.13
2023-01-29T23:58:44.250Z,-3.07
